createdAt,value
2022-12-11T00:00:57.483Z,92.53
2022-12-11T00:06:18.412Z,92.85
2022-12-11T00:11:22.712Z,92.96
2022-12-11T00:16:27.219Z,92.83
2022-12-11T00:21:30.650Z,92.99
2022-12-11T00:26:33.612Z,92.92
2022-12-11T00:31:36.536Z,92.72
2022-12-11T00:36:39.890Z,92.43
2022-12-11T00:41:43.451Z,92.75
2022-12-11T00:46:46.963Z,92.73
2022-12-11T00:51:49.867Z,92.89
2022-12-11T00:56:52.878Z,92.65
2022-12-11T01:01:55.782Z,92.59
2022-12-11T01:06:58.680Z,92.76
2022-12-11T01:12:01.586Z,92.76
2022-12-11T01:17:04.644Z,93.19
2022-12-11T01:22:07.906Z,93.45
2022-12-11T01:27:10.812Z,93.72
2022-12-11T01:32:13.819Z,94.15
2022-12-11T01:37:16.722Z,94.39
2022-12-11T01:42:20.751Z,94.68
2022-12-11T01:47:24.168Z,94.51
2022-12-11T01:52:27.076Z,94.49
2022-12-11T01:57:30.281Z,94.69
2022-12-11T02:02:34.131Z,94.85
2022-12-11T02:07:41.825Z,95.16
2022-12-11T02:13:46.579Z,95.05
2022-12-11T02:19:01.262Z,95.14
2022-12-11T02:24:22.801Z,95.42
2022-12-11T02:29:32.975Z,95.47
2022-12-11T02:34:46.908Z,95.78
2022-12-11T02:39:54.351Z,96.34
2022-12-11T02:45:00.726Z,96.34
2022-12-11T02:50:09.914Z,96.43
2022-12-11T02:55:15.656Z,96.50
2022-12-11T03:00:19.438Z,96.95
2022-12-11T03:05:22.592Z,96.97
2022-12-11T03:10:25.912Z,96.97
2022-12-11T03:15:37.411Z,97.22
2022-12-11T03:20:57.523Z,97.36
2022-12-11T03:26:11.522Z,97.36
2022-12-11T03:31:27.596Z,96.96
2022-12-11T03:36:38.385Z,97.00
2022-12-11T03:41:44.155Z,97.09
2022-12-11T03:46:48.477Z,97.20
2022-12-11T03:51:54.584Z,97.33
2022-12-11T03:57:00.244Z,97.50
2022-12-11T04:02:10.987Z,98.05
2022-12-11T04:07:14.035Z,98.46
2022-12-11T04:12:17.398Z,98.74
2022-12-11T04:17:38.790Z,98.71
2022-12-11T04:23:00.026Z,98.45
2022-12-11T04:28:02.932Z,98.99
2022-12-11T04:33:07.022Z,99.07
2022-12-11T04:38:09.964Z,99.12
2022-12-11T04:43:12.968Z,99.46
2022-12-11T04:48:15.975Z,99.60
2022-12-11T04:53:18.878Z,99.57
2022-12-11T04:58:22.716Z,99.62
2022-12-11T05:03:25.608Z,99.69
2022-12-11T05:08:28.718Z,99.32
2022-12-11T05:13:32.724Z,99.15
2022-12-11T05:18:35.936Z,99.53
2022-12-11T05:23:39.890Z,99.70
2022-12-11T05:28:43.457Z,99.37
2022-12-11T05:33:49.074Z,99.47
2022-12-11T05:38:52.859Z,99.64
2022-12-11T05:43:55.807Z,99.78
2022-12-11T05:49:01.169Z,99.73
2022-12-11T05:54:05.323Z,99.82
2022-12-11T05:59:09.331Z,99.55
2022-12-11T06:04:13.745Z,99.63
2022-12-11T06:09:17.290Z,99.83
2022-12-11T06:14:20.501Z,99.62
2022-12-11T06:19:24.022Z,99.56
2022-12-11T06:24:26.922Z,99.44
2022-12-11T06:29:29.827Z,99.37
2022-12-11T06:34:32.836Z,99.40
2022-12-11T06:39:35.739Z,99.47
2022-12-11T06:44:38.639Z,99.56
2022-12-11T06:49:41.546Z,99.43
2022-12-11T06:54:44.448Z,99.24
2022-12-11T06:59:47.458Z,99.03
2022-12-11T07:04:54.867Z,98.87
2022-12-11T07:10:04.052Z,98.66
2022-12-11T07:15:11.306Z,98.37
2022-12-11T07:20:15.049Z,98.66
2022-12-11T07:25:18.154Z,98.83
2022-12-11T07:30:21.060Z,98.87
2022-12-11T07:35:23.963Z,98.91
2022-12-11T07:40:26.918Z,98.84
2022-12-11T07:45:30.019Z,99.12
2022-12-11T07:50:38.152Z,99.06
2022-12-11T07:55:42.748Z,99.15
2022-12-11T08:00:45.652Z,98.54
2022-12-11T08:05:50.124Z,98.24
2022-12-11T08:10:53.098Z,98.10
2022-12-11T08:15:56.207Z,98.11
2022-12-11T08:20:59.112Z,98.38
2022-12-11T08:26:04.277Z,98.05
2022-12-11T08:31:09.504Z,97.92
2022-12-11T08:36:15.707Z,97.73
2022-12-11T08:41:30.639Z,97.25
2022-12-11T08:46:33.752Z,97.18
2022-12-11T08:51:36.710Z,97.45
2022-12-11T08:56:39.595Z,97.14
2022-12-11T09:01:42.462Z,96.94
2022-12-11T09:06:45.524Z,96.86
2022-12-11T09:11:48.427Z,96.63
2022-12-11T09:16:51.330Z,96.52
2022-12-11T09:21:54.236Z,95.80
2022-12-11T09:26:57.039Z,95.65
2022-12-11T09:32:00.796Z,95.70
2022-12-11T09:37:03.770Z,95.55
2022-12-11T09:42:10.050Z,95.58
2022-12-11T09:47:36.197Z,95.63
2022-12-11T09:53:17.811Z,95.15
2022-12-11T09:58:35.974Z,95.24
2022-12-11T10:04:02.500Z,95.02
2022-12-11T10:09:19.876Z,95.26
2022-12-11T10:14:49.610Z,94.93
2022-12-11T10:19:53.639Z,94.43
2022-12-11T10:25:15.324Z,95.09
2022-12-11T10:30:38.138Z,95.36
2022-12-11T10:35:58.366Z,95.44
2022-12-11T10:41:04.448Z,95.25
2022-12-11T10:46:23.473Z,95.08
2022-12-11T10:51:37.598Z,95.21
2022-12-11T10:56:40.601Z,95.13
2022-12-11T11:01:47.665Z,95.29
2022-12-11T11:07:11.700Z,95.31
2022-12-11T11:12:26.623Z,95.52
2022-12-11T11:17:35.103Z,95.25
2022-12-11T11:22:50.829Z,95.10
2022-12-11T11:27:55.265Z,95.21
2022-12-11T11:33:02.673Z,95.18
2022-12-11T11:38:21.357Z,95.13
2022-12-11T11:43:37.267Z,94.83
2022-12-11T11:48:58.767Z,94.76
2022-12-11T11:54:10.040Z,95.17
2022-12-11T11:59:18.841Z,95.40
2022-12-11T12:04:21.747Z,95.41
2022-12-11T12:09:43.734Z,95.90
2022-12-11T12:15:08.851Z,95.64
2022-12-11T12:20:23.809Z,95.69
2022-12-11T12:25:40.949Z,95.77
2022-12-11T12:31:23.225Z,95.64
2022-12-11T12:36:50.756Z,95.59
2022-12-11T12:42:07.884Z,95.44
2022-12-11T12:47:15.513Z,95.57
2022-12-11T12:52:26.629Z,95.40
2022-12-11T12:57:30.533Z,95.54
2022-12-11T13:02:33.471Z,95.68
2022-12-11T13:07:36.545Z,96.04
2022-12-11T13:12:46.523Z,96.41
2022-12-11T13:17:49.299Z,96.47
2022-12-11T13:23:07.278Z,96.58
2022-12-11T13:28:23.488Z,96.79
2022-12-11T13:33:28.440Z,96.84
2022-12-11T13:38:31.447Z,96.77
2022-12-11T13:43:34.454Z,96.46
2022-12-11T13:48:43.812Z,96.91
2022-12-11T13:53:47.636Z,97.01
2022-12-11T13:58:50.748Z,96.97
2022-12-11T14:03:59.694Z,96.83
2022-12-11T14:09:05.563Z,96.83
2022-12-11T14:14:34.378Z,96.97
2022-12-11T14:19:37.587Z,96.97
2022-12-11T14:24:50.161Z,96.94
2022-12-11T14:29:53.848Z,97.23
2022-12-11T14:34:58.132Z,97.31
2022-12-11T14:40:17.362Z,97.13
2022-12-11T14:45:40.303Z,97.04
2022-12-11T14:50:48.670Z,97.38
2022-12-11T14:55:52.907Z,97.07
2022-12-11T15:01:02.578Z,97.10
2022-12-11T15:06:34.147Z,97.28
2022-12-11T15:11:37.765Z,97.45
2022-12-11T15:16:42.881Z,97.38
2022-12-11T15:21:46.306Z,97.35
2022-12-11T15:26:49.242Z,97.51
2022-12-11T15:32:03.007Z,97.40
2022-12-11T15:37:38.675Z,97.28
2022-12-11T15:42:42.634Z,97.50
2022-12-11T15:47:46.525Z,97.50
2022-12-11T15:52:51.481Z,97.46
2022-12-11T15:57:57.661Z,97.49
2022-12-11T16:03:00.773Z,97.46
2022-12-11T16:08:04.336Z,97.77
2022-12-11T16:13:07.299Z,98.08
2022-12-11T16:18:13.173Z,97.90
2022-12-11T16:23:17.509Z,98.00
2022-12-11T16:28:21.434Z,97.78
2022-12-11T16:33:24.343Z,97.52
2022-12-11T16:38:27.355Z,97.76
2022-12-11T16:43:30.355Z,97.92
2022-12-11T16:48:33.256Z,97.97
2022-12-11T16:53:36.774Z,97.81
2022-12-11T16:58:40.908Z,97.63
2022-12-11T17:03:44.636Z,97.54
2022-12-11T17:08:47.896Z,97.85
2022-12-11T17:13:59.148Z,97.97
2022-12-11T17:19:03.582Z,97.82
2022-12-11T17:24:08.125Z,98.08
2022-12-11T17:29:12.457Z,98.10
2022-12-11T17:34:16.188Z,97.94
2022-12-11T17:39:19.193Z,97.70
2022-12-11T17:44:22.198Z,97.89
2022-12-11T17:49:25.578Z,97.84
2022-12-11T17:54:28.521Z,97.59
2022-12-11T17:59:31.629Z,97.34
2022-12-11T18:04:34.533Z,97.25
2022-12-11T18:09:40.406Z,97.23
2022-12-11T18:14:43.309Z,97.21
2022-12-11T18:19:46.395Z,97.32
2022-12-11T18:24:49.939Z,97.41
2022-12-11T18:29:52.841Z,97.39
2022-12-11T18:34:55.746Z,97.36
2022-12-11T18:39:58.681Z,97.20
2022-12-11T18:45:02.168Z,97.32
2022-12-11T18:50:07.925Z,97.43
2022-12-11T18:55:11.601Z,97.15
2022-12-11T19:00:16.477Z,97.25
2022-12-11T19:05:19.619Z,97.16
2022-12-11T19:10:22.729Z,97.15
2022-12-11T19:15:25.634Z,97.32
2022-12-11T19:25:51.625Z,97.27
2022-12-11T19:30:54.623Z,97.40
2022-12-11T19:36:05.975Z,97.49
2022-12-11T19:41:13.332Z,97.47
2022-12-11T19:46:17.796Z,97.58
2022-12-11T19:51:23.760Z,97.59
2022-12-11T19:56:26.856Z,97.91
2022-12-11T20:01:36.111Z,98.06
2022-12-11T20:06:43.111Z,98.19
2022-12-11T20:11:47.891Z,98.38
2022-12-11T20:17:10.081Z,98.47
2022-12-11T20:22:14.248Z,98.62
2022-12-11T20:27:18.073Z,98.87
2022-12-11T20:32:21.082Z,98.91
2022-12-11T20:37:26.201Z,99.20
2022-12-11T20:42:29.140Z,99.57
2022-12-11T20:47:32.047Z,99.74
2022-12-11T20:52:35.358Z,99.97
2022-12-11T20:57:43.466Z,100.00
2022-12-11T21:02:49.972Z,99.99
2022-12-11T21:07:54.623Z,100.00
2022-12-11T21:12:57.524Z,100.00
2022-12-11T21:18:00.425Z,100.00
2022-12-11T21:23:04.114Z,100.00
2022-12-11T21:28:07.054Z,100.00
2022-12-11T21:33:10.468Z,100.00
2022-12-11T21:38:13.886Z,100.00
2022-12-11T21:43:16.999Z,100.00
2022-12-11T21:48:19.898Z,100.00
2022-12-11T21:53:23.303Z,100.00
2022-12-11T21:58:26.216Z,100.00
2022-12-11T22:03:29.427Z,100.00
2022-12-11T22:08:32.484Z,100.00
2022-12-11T22:13:35.747Z,100.00
2022-12-11T22:18:39.368Z,100.00
2022-12-11T22:23:44.016Z,100.00
2022-12-11T22:28:47.532Z,100.00
2022-12-11T22:33:54.326Z,100.00
2022-12-11T22:38:57.232Z,100.00
2022-12-11T22:44:00.551Z,100.00
2022-12-11T22:49:03.556Z,100.00
2022-12-11T22:54:06.662Z,100.00
2022-12-11T22:59:09.563Z,100.00
2022-12-11T23:04:12.573Z,100.00
2022-12-11T23:09:15.766Z,100.00
2022-12-11T23:14:19.595Z,100.00
2022-12-11T23:19:25.608Z,100.00
2022-12-11T23:24:29.103Z,100.00
2022-12-11T23:29:32.415Z,100.00
2022-12-11T23:34:35.318Z,100.00
2022-12-11T23:39:38.186Z,100.00
2022-12-11T23:44:41.537Z,100.00
2022-12-11T23:49:44.445Z,100.00
2022-12-11T23:54:47.550Z,100.00
2022-12-11T23:59:50.658Z,100.00
